This is the latest recevied weather packets stored in our database for station/object OM3WYM-13. If no packets are shown the sender has not sent any weather packets the latest 10 day(s).
| Time | Temp. | Humidity | Pressure | Rain* | Wind** | Luminosity | Snow |
|---|---|---|---|---|---|---|---|
| 1777648809 | 15.56° C | 36% | 1023.9 hPa | - | - | - | - |
| 1777648209 | 15.56° C | 35% | 1023.9 hPa | - | - | - | - |
| 1777647609 | 16.11° C | 35% | 1024 hPa | - | - | - | - |
| 1777647009 | 16.11° C | 34% | 1024 hPa | - | - | - | - |
| 1777645846 | 16.11° C | 33% | 1023.9 hPa | - | - | - | - |
| 1777645208 | 16.11° C | 34% | 1023.9 hPa | - | - | - | - |
| 1777644608 | 16.11° C | 33% | 1024 hPa | - | - | - | - |
| 1777644007 | 16.11° C | 32% | 1024 hPa | - | - | - | - |
| 1777643408 | 16.11° C | 33% | 1024 hPa | - | - | - | - |
| 1777642807 | 16.11° C | 33% | 1024.1 hPa | - | - | - | - |
| 1777642207 | 16.11° C | 33% | 1024.2 hPa | - | - | - | - |
| 1777641607 | 16.11° C | 32% | 1024 hPa | - | - | - | - |
| 1777641007 | 16.11° C | 32% | 1024.1 hPa | - | - | - | - |
| 1777640407 | 16.67° C | 31% | 1024 hPa | - | - | - | - |
| 1777639808 | 17.78° C | 29% | 1023.8 hPa | - | - | - | - |
| 1777639207 | 19.44° C | 28% | 1023.6 hPa | - | - | - | - |
| 1777638607 | 19.44° C | 29% | 1023.9 hPa | - | - | - | - |
| 1777638007 | 18.33° C | 30% | 1024.1 hPa | - | - | - | - |
| 1777637408 | 18.33° C | 30% | 1024.1 hPa | - | - | - | - |
| 1777636808 | 18.33° C | 32% | 1024.2 hPa | - | - | - | - |
| 1777636207 | 16.11° C | 34% | 1024.6 hPa | - | - | - | - |
| 1777635607 | 15.56° C | 33% | 1024.7 hPa | - | - | - | - |
| 1777635008 | 16.11° C | 33% | 1024.7 hPa | - | - | - | - |
| 1777634408 | 16.11° C | 33% | 1024.7 hPa | - | - | - | - |
| 1777633808 | 15.56° C | 33% | 1024.7 hPa | - | - | - | - |
* Rain since midnight (hover to see other rain measurements)
** Current wind speed in m/s (hover to see current wind gust speed)